Time;durP1;ratioP1;P1;durP2;ratioP2;P2;SDS_P1;SDS_P2;PMS_P1;PMS_P2;Temp;Humidity;BMP_temperature;BMP_pressure;BME280_temperature;BME280_humidity;BME280_pressure;Samples;Min_cycle;Max_cycle;Signal;HPM_P1;HPM_P2
2024/01/14 00:00:52;;;;;;;29.00;17.55;;;;;;;-2.96;79.54;98173.09;4989567;28;20302;-74
2024/01/14 00:03:18;;;;;;;39.85;21.50;;;;;;;-3.02;80.13;98162.94;4990135;28;20269;-75
2024/01/14 00:05:45;;;;;;;36.92;18.80;;;;;;;-3.06;80.16;98164.13;4990249;28;20214;-75
2024/01/14 00:08:12;;;;;;;38.58;18.23;;;;;;;-3.16;80.34;98152.53;4990745;28;20210;-75
2024/01/14 00:14:00;;;;;;;32.28;16.33;;;;;;;-3.15;80.52;98143.63;4989226;28;20203;-74
2024/01/14 00:16:32;;;;;;;32.53;17.58;;;;;;;-2.99;80.40;98136.25;4991285;28;20227;-75
2024/01/14 00:18:59;;;;;;;36.03;18.95;;;;;;;-3.04;80.48;98141.03;4990922;28;20207;-75
2024/01/14 00:21:25;;;;;;;37.80;19.65;;;;;;;-2.96;80.64;98129.88;4989179;28;20214;-75
2024/01/14 00:23:52;;;;;;;41.28;20.90;;;;;;;-3.01;80.56;98126.75;4989103;28;20211;-75
2024/01/14 00:26:18;;;;;;;38.67;21.83;;;;;;;-3.02;80.56;98117.97;4989907;28;20285;-75
2024/01/14 00:28:45;;;;;;;44.38;21.08;;;;;;;-3.04;80.84;98111.94;4999519;28;20229;-75
2024/01/14 00:31:11;;;;;;;38.95;21.13;;;;;;;-2.89;80.17;98116.03;4990790;28;20205;-75
2024/01/14 00:33:40;;;;;;;37.42;18.73;;;;;;;-2.93;80.20;98114.63;4974108;28;20218;-75
2024/01/14 00:36:07;;;;;;;38.20;20.55;;;;;;;-2.95;80.23;98113.06;4989752;28;20227;-75
2024/01/14 00:38:34;;;;;;;36.92;19.50;;;;;;;-2.84;80.29;98111.25;4990601;28;20206;-75
2024/01/14 00:44:23;;;;;;;38.80;19.27;;;;;;;-3.08;79.57;98094.59;4994652;28;20550;-74
2024/01/14 00:46:51;;;;;;;37.65;19.85;;;;;;;-3.08;79.99;98090.13;4994332;28;20215;-75
2024/01/14 00:49:19;;;;;;;37.88;18.95;;;;;;;-3.04;79.83;98082.81;4994726;28;20565;-74
2024/01/14 00:51:46;;;;;;;40.28;20.60;;;;;;;-2.90;79.34;98081.75;4994618;28;20205;-75
2024/01/14 00:54:12;;;;;;;38.38;20.48;;;;;;;-2.86;79.29;98072.63;4995812;28;20203;-74
2024/01/14 00:56:39;;;;;;;41.42;20.25;;;;;;;-3.02;79.74;98088.84;4996543;28;20222;-74
2024/01/14 00:59:05;;;;;;;38.42;19.90;;;;;;;-3.08;79.35;98068.97;4995872;28;20294;-75
2024/01/14 01:01:33;;;;;;;33.15;18.25;;;;;;;-3.05;79.37;98066.09;4997940;28;20246;-74
2024/01/14 01:03:59;;;;;;;35.85;18.92;;;;;;;-3.02;79.56;98064.19;4997283;28;20286;-73
2024/01/14 01:06:27;;;;;;;37.15;19.17;;;;;;;-2.93;79.33;98061.69;5004513;28;20258;-74
2024/01/14 01:08:54;;;;;;;33.97;18.73;;;;;;;-2.89;79.12;98052.50;5007382;28;20223;-74
2024/01/14 01:11:21;;;;;;;36.63;19.60;;;;;;;-2.85;78.80;98047.81;5008649;28;20266;-74
2024/01/14 01:13:47;;;;;;;39.25;19.60;;;;;;;-2.86;78.75;98044.34;5021815;28;20266;-75
2024/01/14 01:16:14;;;;;;;40.80;20.45;;;;;;;-3.21;79.87;98056.78;5006810;28;20219;-73
2024/01/14 01:18:40;;;;;;;33.42;19.13;;;;;;;-3.15;79.91;98043.91;5006562;28;20230;-75
2024/01/14 01:21:07;;;;;;;38.58;18.83;;;;;;;-3.13;79.46;98049.09;4996737;28;20291;-75
2024/01/14 01:23:53;;;;;;;33.00;18.60;;;;;;;-3.18;80.43;98045.97;4994252;28;20211;-75
2024/01/14 01:26:19;;;;;;;43.20;20.15;;;;;;;-3.23;80.37;98037.53;5009495;28;20207;-74
2024/01/14 01:28:46;;;;;;;36.83;19.80;;;;;;;-3.21;80.64;98036.44;4995594;28;20265;-74
2024/01/14 01:31:13;;;;;;;35.83;19.38;;;;;;;-3.12;80.44;98030.47;4994103;28;20282;-74
2024/01/14 01:33:39;;;;;;;36.33;19.13;;;;;;;-3.18;81.94;98025.63;4992813;28;20294;-74
2024/01/14 01:36:06;;;;;;;39.13;18.15;;;;;;;-3.10;80.58;98022.41;4991012;28;20314;-75
2024/01/14 01:38:33;;;;;;;40.53;19.63;;;;;;;-2.98;80.03;98018.81;4991190;28;20210;-75
2024/01/14 01:41:01;;;;;;;34.25;18.50;;;;;;;-3.07;80.28;98014.22;4991074;28;20207;-75
2024/01/14 01:43:27;;;;;;;36.53;18.30;;;;;;;-2.95;79.46;98008.00;4992248;28;20250;-75
2024/01/14 01:45:56;;;;;;;35.40;19.38;;;;;;;-2.94;79.42;98001.75;4992650;28;20554;-75
2024/01/14 01:48:23;;;;;;;40.30;20.60;;;;;;;-3.18;79.54;98009.75;4993420;28;20317;-75
2024/01/14 01:50:50;;;;;;;33.28;17.98;;;;;;;-3.38;80.36;98008.63;4991285;28;20213;-75
2024/01/14 01:53:17;;;;;;;33.35;19.02;;;;;;;-3.16;79.89;98007.00;4992551;28;20199;-75
2024/01/14 01:55:44;;;;;;;38.83;20.17;;;;;;;-3.06;80.09;98007.97;4971111;28;20230;-75
2024/01/14 01:58:12;;;;;;;37.35;18.88;;;;;;;-3.13;80.21;98006.75;4990542;28;20217;-74
2024/01/14 02:00:38;;;;;;;37.58;19.98;;;;;;;-2.87;79.73;97996.78;4992092;28;20221;-75
2024/01/14 02:03:07;;;;;;;36.63;19.60;;;;;;;-3.15;79.54;97991.00;4973631;28;20196;-75
2024/01/14 02:05:35;;;;;;;36.42;19.17;;;;;;;-3.10;79.22;97990.66;4991384;28;20282;-75
2024/01/14 02:08:01;;;;;;;40.05;19.35;;;;;;;-3.16;79.70;97985.81;4991313;28;20237;-75
2024/01/14 02:10:28;;;;;;;33.80;18.48;;;;;;;-3.24;79.98;97982.91;4991593;28;20214;-75
2024/01/14 02:12:56;;;;;;;40.38;20.52;;;;;;;-3.18;79.78;97987.75;5005762;28;20215;-75
2024/01/14 02:15:24;;;;;;;40.10;17.77;;;;;;;-3.08;79.70;97978.97;4988649;28;20584;-75
2024/01/14 02:17:51;;;;;;;40.45;19.35;;;;;;;-3.05;79.88;97973.47;4992024;28;20214;-75
2024/01/14 02:20:18;;;;;;;37.72;19.98;;;;;;;-3.12;79.93;97976.69;4992508;28;20206;-73
2024/01/14 02:22:46;;;;;;;36.45;18.90;;;;;;;-3.21;80.15;97972.94;4974021;28;20207;-75
2024/01/14 02:25:14;;;;;;;34.92;18.58;;;;;;;-3.21;80.08;97967.66;4990009;28;20214;-75
2024/01/14 02:27:40;;;;;;;37.75;19.88;;;;;;;-3.22;80.04;97965.97;4991290;28;20207;-75
2024/01/14 02:30:09;;;;;;;36.92;19.48;;;;;;;-3.27;80.13;97965.50;4991322;28;20199;-75
2024/01/14 02:32:37;;;;;;;35.55;18.80;;;;;;;-3.19;79.89;97967.53;4988582;28;20542;-75
2024/01/14 02:35:05;;;;;;;41.10;20.90;;;;;;;-3.21;79.70;97962.34;4988576;28;20246;-75
2024/01/14 02:37:31;;;;;;;40.90;20.73;;;;;;;-3.06;79.06;97965.63;4990022;28;20231;-75
2024/01/14 02:39:58;;;;;;;43.67;21.20;;;;;;;-3.17;79.41;97957.69;5006229;28;20317;-75
2024/01/14 02:42:25;;;;;;;36.55;19.88;;;;;;;-3.39;80.34;97964.63;4990655;28;20691;-75
2024/01/14 02:44:52;;;;;;;42.25;18.35;;;;;;;-3.49;80.82;97957.50;4989483;28;20211;-75
2024/01/14 02:47:18;;;;;;;41.25;19.42;;;;;;;-3.48;80.09;97957.38;4989810;28;20542;-75
2024/01/14 02:49:45;;;;;;;40.60;20.38;;;;;;;-3.56;80.37;97951.00;4991399;28;20203;-74
2024/01/14 02:52:12;;;;;;;43.00;21.15;;;;;;;-3.59;81.25;97954.75;4990080;28;20205;-75
2024/01/14 02:54:38;;;;;;;40.85;20.77;;;;;;;-3.54;80.97;97949.91;4990776;28;20208;-75
2024/01/14 02:57:05;;;;;;;35.60;18.73;;;;;;;-3.46;80.61;97960.75;4991707;28;20566;-75
2024/01/14 02:59:33;;;;;;;39.67;19.63;;;;;;;-3.42;80.37;97950.78;4990400;28;20908;-75
2024/01/14 03:01:59;;;;;;;39.58;20.83;;;;;;;-3.55;80.80;97955.31;4996983;28;20195;-74
2024/01/14 03:04:26;;;;;;;46.40;21.25;;;;;;;-3.42;80.72;97954.28;4991363;28;20206;-74
2024/01/14 03:06:53;;;;;;;41.08;19.77;;;;;;;-3.46;81.01;97955.47;4990766;28;20286;-75
2024/01/14 03:09:19;;;;;;;38.05;19.83;;;;;;;-3.38;80.69;97939.88;4991186;28;20206;-75
2024/01/14 03:11:46;;;;;;;43.38;20.30;;;;;;;-3.44;80.48;97950.91;5005986;28;20199;-75
2024/01/14 03:14:12;;;;;;;40.80;20.77;;;;;;;-3.29;80.36;97942.78;4991307;28;20210;-75
2024/01/14 03:16:40;;;;;;;41.33;20.63;;;;;;;-3.30;79.99;97949.88;4991561;28;20229;-75
2024/01/14 03:19:07;;;;;;;36.00;19.70;;;;;;;-3.29;80.20;97948.91;4990655;28;20199;-75
2024/01/14 03:21:33;;;;;;;39.50;19.05;;;;;;;-3.30;80.02;97952.50;4988684;28;20562;-75
2024/01/14 03:24:00;;;;;;;40.50;20.80;;;;;;;-3.43;80.92;97952.59;4990160;28;20221;-74
2024/01/14 03:26:27;;;;;;;38.55;19.88;;;;;;;-3.47;81.15;97955.59;4991069;28;20297;-74
2024/01/14 03:28:53;;;;;;;43.30;21.25;;;;;;;-3.34;80.68;97956.34;4989614;28;20290;-75
2024/01/14 03:31:20;;;;;;;45.63;21.25;;;;;;;-3.37;80.88;97953.94;4990347;28;20230;-75
2024/01/14 03:33:47;;;;;;;44.55;21.67;;;;;;;-3.29;80.18;97954.19;4990792;28;20211;-75
2024/01/14 03:36:14;;;;;;;39.70;18.55;;;;;;;-3.58;81.39;97951.13;4989541;28;20233;-75
2024/01/14 03:38:41;;;;;;;45.13;21.17;;;;;;;-3.66;80.81;97950.88;5005193;28;20199;-75
2024/01/14 03:41:08;;;;;;;43.55;20.08;;;;;;;-3.72;81.09;97946.03;4988245;28;20224;-75
2024/01/14 03:43:35;;;;;;;43.40;21.08;;;;;;;-3.67;81.08;97951.81;4990953;28;20201;-75
2024/01/14 03:46:01;;;;;;;40.60;20.27;;;;;;;-3.67;81.33;97948.34;4991074;28;20199;-74
2024/01/14 03:48:28;;;;;;;41.80;20.90;;;;;;;-3.63;81.33;97944.50;4991460;28;20195;-75
2024/01/14 03:50:56;;;;;;;44.97;21.05;;;;;;;-3.62;81.62;97947.03;4988595;28;20211;-75
2024/01/14 03:53:23;;;;;;;43.42;22.02;;;;;;;-3.53;81.39;97941.03;4989470;28;20294;-75
2024/01/14 03:55:50;;;;;;;38.47;20.23;;;;;;;-3.48;81.19;97946.81;4989282;28;20207;-75
2024/01/14 03:58:16;;;;;;;45.25;21.25;;;;;;;-3.58;81.72;97943.22;4989788;28;20270;-75
2024/01/14 04:00:43;;;;;;;46.40;22.17;;;;;;;-3.57;81.68;97949.34;4987041;28;20673;-74
2024/01/14 04:03:09;;;;;;;44.08;20.25;;;;;;;-3.75;82.47;97947.09;5004156;28;20221;-74
2024/01/14 04:05:36;;;;;;;44.53;23.35;;;;;;;-3.69;82.49;97948.44;4989830;28;20214;-75
2024/01/14 04:08:04;;;;;;;45.33;20.40;;;;;;;-3.69;82.86;97952.91;4990600;28;20324;-74
2024/01/14 04:10:31;;;;;;;46.47;21.08;;;;;;;-3.77;83.03;97953.47;5005325;28;20211;-75
2024/01/14 04:12:57;;;;;;;40.00;20.65;;;;;;;-3.84;83.37;97946.94;4989625;28;20733;-74
2024/01/14 04:15:25;;;;;;;43.30;22.40;;;;;;;-3.85;82.34;97951.41;4990379;28;20217;-74
2024/01/14 04:17:52;;;;;;;44.45;20.95;;;;;;;-3.89;83.10;97955.22;4989916;28;20219;-74
2024/01/14 04:20:18;;;;;;;38.35;19.70;;;;;;;-3.88;83.16;97946.34;4976166;28;20214;-75
2024/01/14 04:22:45;;;;;;;46.83;22.45;;;;;;;-3.78;83.07;97952.63;5007364;28;20209;-74
2024/01/14 04:25:13;;;;;;;44.35;20.30;;;;;;;-3.65;82.65;97957.00;4993823;28;20199;-75
2024/01/14 04:27:39;;;;;;;45.05;21.83;;;;;;;-3.73;82.25;97952.28;4992519;28;20561;-74
2024/01/14 04:33:06;;;;;;;47.05;21.63;;;;;;;-3.87;83.07;97953.31;4994528;28;20262;-75
2024/01/14 04:35:35;;;;;;;40.42;20.15;;;;;;;-3.76;82.62;97955.16;4994947;28;20206;-75
2024/01/14 04:38:02;;;;;;;42.33;19.35;;;;;;;-3.63;82.64;97953.28;4996809;28;20880;-75
2024/01/14 04:40:30;;;;;;;40.63;21.63;;;;;;;-3.74;82.39;97950.59;4993044;28;20242;-75
2024/01/14 04:42:56;;;;;;;36.22;19.70;;;;;;;-3.90;83.04;97963.28;4991888;28;20282;-75
2024/01/14 04:45:23;;;;;;;50.17;22.67;;;;;;;-4.10;84.10;97956.81;4990573;28;20218;-75
2024/01/14 04:47:52;;;;;;;42.38;21.05;;;;;;;-3.92;83.63;97957.28;4993690;28;20191;-74
2024/01/14 04:50:19;;;;;;;46.40;20.75;;;;;;;-3.84;82.87;97952.22;4980060;28;20215;-75
2024/01/14 04:52:46;;;;;;;42.50;20.50;;;;;;;-3.89;83.39;97955.22;4989600;28;20199;-75
2024/01/14 04:55:13;;;;;;;45.47;21.13;;;;;;;-3.99;83.68;97954.25;4990696;28;20318;-75
2024/01/14 04:57:41;;;;;;;45.25;21.60;;;;;;;-3.90;83.28;97947.44;4988727;28;20229;-75
2024/01/14 05:00:09;;;;;;;41.20;20.88;;;;;;;-4.00;83.94;97954.34;4989742;28;20213;-75
2024/01/14 05:02:36;;;;;;;44.28;21.95;;;;;;;-3.88;83.46;97953.41;4988102;28;20295;-75
2024/01/14 05:05:03;;;;;;;42.42;22.60;;;;;;;-3.78;83.38;97952.63;4989490;28;20210;-76
2024/01/14 05:07:30;;;;;;;49.60;23.10;;;;;;;-3.61;84.27;97954.00;4989095;28;20206;-74
2024/01/14 05:09:56;;;;;;;43.97;22.90;;;;;;;-3.68;83.46;97957.22;4988426;28;20203;-74
2024/01/14 05:12:23;;;;;;;52.08;23.17;;;;;;;-3.60;83.31;97960.97;4988151;28;20222;-74
2024/01/14 05:14:51;;;;;;;46.35;21.10;;;;;;;-3.49;82.42;97958.34;4990231;28;20208;-75
2024/01/14 05:17:17;;;;;;;42.33;22.08;;;;;;;-3.45;81.69;97951.03;4986677;28;20227;-74
2024/01/14 05:19:45;;;;;;;45.88;22.48;;;;;;;-3.53;82.29;97951.59;4987835;28;20282;-75
2024/01/14 05:22:12;;;;;;;50.22;22.27;;;;;;;-3.69;82.63;97952.91;4988460;28;20207;-75
2024/01/14 05:24:38;;;;;;;44.92;21.27;;;;;;;-3.70;83.04;97953.84;5004998;28;20211;-76
2024/01/14 05:27:05;;;;;;;45.92;22.83;;;;;;;-3.77;83.04;97951.66;4988947;28;20204;-76
2024/01/14 05:29:32;;;;;;;46.00;20.60;;;;;;;-3.66;83.08;97950.88;4988651;28;20318;-74
2024/01/14 05:32:00;;;;;;;45.92;23.02;;;;;;;-3.70;82.81;97943.28;5015654;28;20617;-74
2024/01/14 05:34:26;;;;;;;44.67;22.50;;;;;;;-3.67;83.09;97943.91;5003188;28;20462;-76
2024/01/14 05:36:53;;;;;;;46.90;22.85;;;;;;;-3.71;83.22;97937.16;5004706;28;20301;-76
2024/01/14 05:39:19;;;;;;;48.45;24.92;;;;;;;-3.60;83.42;97937.19;5005677;28;20271;-75
2024/01/14 05:41:47;;;;;;;49.70;22.55;;;;;;;-3.61;83.53;97926.72;4998075;28;20199;-74
2024/01/14 05:44:13;;;;;;;49.28;23.20;;;;;;;-3.60;82.89;97929.25;4992311;28;20199;-75
2024/01/14 05:46:40;;;;;;;51.03;23.60;;;;;;;-3.69;83.65;97923.81;4993314;28;20197;-75
2024/01/14 05:49:08;;;;;;;47.17;23.38;;;;;;;-3.85;84.33;97918.84;4992515;28;20259;-75
2024/01/14 05:51:34;;;;;;;45.83;23.35;;;;;;;-3.99;84.86;97922.53;4992749;28;20215;-75
2024/01/14 05:54:01;;;;;;;51.72;23.80;;;;;;;-4.12;85.25;97919.94;4991077;28;20206;-76
2024/01/14 05:56:28;;;;;;;56.50;24.65;;;;;;;-4.34;86.58;97922.50;4991716;28;20238;-75
2024/01/14 05:58:54;;;;;;;59.38;25.83;;;;;;;-4.50;87.89;97924.56;4990978;28;20303;-74
2024/01/14 06:01:21;;;;;;;59.33;26.33;;;;;;;-4.59;88.07;97922.59;4991835;28;20207;-75
2024/01/14 06:03:47;;;;;;;63.13;26.02;;;;;;;-4.47;88.56;97919.06;4992826;28;20203;-75
2024/01/14 06:06:15;;;;;;;66.65;28.80;;;;;;;-4.44;88.20;97914.41;4992262;28;20202;-74
2024/01/14 06:08:42;;;;;;;63.88;28.60;;;;;;;-4.31;88.11;97916.16;4974151;28;20215;-74
2024/01/14 06:11:08;;;;;;;63.72;28.73;;;;;;;-4.32;88.16;97919.75;4989882;28;20213;-75
2024/01/14 06:13:35;;;;;;;64.90;28.15;;;;;;;-4.27;88.09;97923.75;4992280;28;20210;-75
2024/01/14 06:16:02;;;;;;;71.22;30.38;;;;;;;-4.29;87.85;97912.44;4998147;28;20246;-75
2024/01/14 06:18:29;;;;;;;78.00;31.65;;;;;;;-4.42;88.73;97903.72;4991628;28;20338;-75
2024/01/14 06:20:55;;;;;;;62.60;27.48;;;;;;;-4.35;88.39;97915.53;4976020;28;21030;-74
2024/01/14 06:23:23;;;;;;;68.82;30.50;;;;;;;-4.30;88.30;97902.84;4992342;28;20211;-75
2024/01/14 06:25:50;;;;;;;69.93;28.90;;;;;;;-4.48;88.87;97904.16;4990974;28;20210;-75
2024/01/14 06:28:16;;;;;;;68.50;30.98;;;;;;;-4.53;88.92;97895.75;4992329;28;20199;-75
2024/01/14 06:30:43;;;;;;;74.15;30.90;;;;;;;-4.47;88.66;97903.22;4991651;28;20208;-75
2024/01/14 06:33:10;;;;;;;70.90;31.23;;;;;;;-4.48;88.90;97894.44;4991140;28;20289;-75
2024/01/14 06:35:36;;;;;;;71.07;30.02;;;;;;;-4.55;89.50;97892.41;4991782;28;20210;-75
2024/01/14 06:38:03;;;;;;;68.95;28.17;;;;;;;-4.59;89.40;97906.78;4989637;28;20310;-75
2024/01/14 06:40:31;;;;;;;70.78;27.63;;;;;;;-4.53;89.27;97891.28;4989718;28;20203;-75
2024/01/14 06:42:58;;;;;;;63.47;30.40;;;;;;;-4.55;89.06;97884.47;4991123;28;20203;-74
2024/01/14 06:45:24;;;;;;;58.10;26.75;;;;;;;-4.48;88.22;97883.88;4991607;28;20199;-80
2024/01/14 06:47:51;;;;;;;62.85;26.05;;;;;;;-4.57;88.12;97889.03;4992574;28;20552;-75
2024/01/14 06:50:17;;;;;;;67.22;29.73;;;;;;;-4.45;87.88;97882.81;4990965;28;20195;-75
2024/01/14 06:52:44;;;;;;;53.90;25.67;;;;;;;-4.39;86.53;97879.72;4990611;28;20234;-75
2024/01/14 06:55:12;;;;;;;51.15;27.45;;;;;;;-4.32;86.18;97873.06;4992744;28;20208;-74
2024/01/14 06:57:40;;;;;;;60.33;28.50;;;;;;;-4.55;86.50;97866.00;4984015;28;20219;-74
2024/01/14 07:00:09;;;;;;;62.60;26.45;;;;;;;-4.54;87.04;97857.09;4989753;28;20207;-75
2024/01/14 07:02:35;;;;;;;58.35;24.80;;;;;;;-4.06;86.69;97866.66;4991408;28;20305;-74
2024/01/14 07:05:02;;;;;;;51.75;23.15;;;;;;;-2.85;84.18;97858.03;4992768;28;20218;-73
2024/01/14 07:07:29;;;;;;;47.03;23.05;;;;;;;-2.50;79.00;97846.41;4998797;28;20808;-73
2024/01/14 07:09:56;;;;;;;47.55;22.30;;;;;;;-3.19;80.53;97843.16;5006430;28;20290;-74
2024/01/14 07:12:23;;;;;;;45.90;22.13;;;;;;;-3.72;82.26;97845.56;5001110;28;20217;-74
2024/01/14 07:14:50;;;;;;;50.90;24.75;;;;;;;-3.89;83.34;97843.38;4991236;28;20357;-72
2024/01/14 07:17:17;;;;;;;45.38;21.80;;;;;;;-3.71;83.07;97836.69;4992192;28;20231;-73
2024/01/14 07:19:43;;;;;;;48.08;22.35;;;;;;;-4.06;83.21;97837.59;4997831;28;20897;-73
2024/01/14 07:22:10;;;;;;;45.10;24.45;;;;;;;-4.03;83.67;97833.03;4991307;28;20209;-73
2024/01/14 07:24:38;;;;;;;46.17;21.98;;;;;;;-4.15;83.26;97843.56;4990848;28;20669;-73
2024/01/14 07:27:05;;;;;;;47.00;22.20;;;;;;;-4.19;83.63;97839.47;4984169;28;20206;-73
2024/01/14 07:29:33;;;;;;;41.50;19.42;;;;;;;-4.19;84.13;97836.81;5000424;28;21091;-73
2024/01/14 07:32:01;;;;;;;46.72;22.17;;;;;;;-4.34;83.75;97832.69;4998483;28;20214;-72
2024/01/14 07:34:28;;;;;;;47.40;21.83;;;;;;;-4.35;83.99;97828.38;4988589;28;20210;-73
2024/01/14 07:36:54;;;;;;;44.10;22.73;;;;;;;-4.21;83.61;97830.81;4990742;28;20211;-72
2024/01/14 07:39:21;;;;;;;44.67;23.23;;;;;;;-4.17;82.97;97832.25;4989231;28;20653;-73
2024/01/14 07:41:47;;;;;;;43.85;22.98;;;;;;;-4.17;82.80;97823.50;4991131;28;20234;-73
2024/01/14 07:44:14;;;;;;;44.55;20.23;;;;;;;-4.12;82.83;97816.91;4988064;28;20203;-74
2024/01/14 07:46:40;;;;;;;40.88;20.58;;;;;;;-4.23;82.90;97824.81;4991379;28;20638;-73
2024/01/14 07:49:08;;;;;;;40.78;20.65;;;;;;;-4.27;82.99;97818.09;4990725;28;20201;-74
2024/01/14 07:51:35;;;;;;;44.70;23.02;;;;;;;-4.49;83.50;97810.06;4987936;28;20559;-73
2024/01/14 07:54:01;;;;;;;37.08;18.75;;;;;;;-4.41;83.19;97808.56;4986456;28;20211;-73
2024/01/14 07:56:28;;;;;;;37.70;20.98;;;;;;;-4.41;83.20;97813.84;4989508;28;20249;-73
2024/01/14 07:58:54;;;;;;;38.55;21.05;;;;;;;-4.19;82.63;97807.75;4990220;28;20219;-73
2024/01/14 08:01:21;;;;;;;38.60;19.08;;;;;;;-4.12;81.71;97802.84;4990870;28;20294;-73
2024/01/14 08:03:48;;;;;;;36.67;18.48;;;;;;;-4.34;82.13;97801.00;4990212;28;20246;-73
2024/01/14 08:06:20;;;;;;;41.10;21.20;;;;;;;-4.23;82.13;97789.66;4998813;28;20205;-73
2024/01/14 08:08:47;;;;;;;39.95;22.02;;;;;;;-4.16;81.39;97791.69;4982438;28;20195;-73
2024/01/14 08:11:15;;;;;;;42.40;22.73;;;;;;;-4.11;81.48;97781.59;4990671;28;20211;-72
2024/01/14 08:13:41;;;;;;;37.97;21.05;;;;;;;-4.27;82.02;97790.84;4990780;28;20207;-73
2024/01/14 08:16:08;;;;;;;40.83;20.95;;;;;;;-4.23;82.12;97797.56;4991197;28;20560;-73
2024/01/14 08:18:34;;;;;;;40.30;20.30;;;;;;;-3.99;81.16;97792.19;4972857;28;20250;-74
2024/01/14 08:21:01;;;;;;;42.78;20.88;;;;;;;-3.93;81.32;97800.50;4990033;28;20653;-74
2024/01/14 08:23:32;;;;;;;40.08;20.42;;;;;;;-3.79;80.82;97804.72;4988467;28;20207;-73
2024/01/14 08:25:58;;;;;;;40.03;20.58;;;;;;;-3.81;80.38;97798.69;4991016;28;20195;-74
2024/01/14 08:28:25;;;;;;;41.53;19.77;;;;;;;-3.78;80.42;97794.00;4989676;28;20210;-73
2024/01/14 08:30:51;;;;;;;35.97;19.73;;;;;;;-3.77;80.31;97793.06;4990500;28;20206;-74
2024/01/14 08:33:18;;;;;;;37.15;20.90;;;;;;;-3.77;80.52;97792.22;4998850;28;20217;-73
2024/01/14 08:35:45;;;;;;;41.05;19.50;;;;;;;-3.85;80.28;97791.97;4990634;28;20612;-74
2024/01/14 08:38:12;;;;;;;40.30;20.95;;;;;;;-3.73;80.37;97788.38;4991062;28;20211;-74
2024/01/14 08:40:40;;;;;;;41.47;20.85;;;;;;;-3.46;79.16;97785.34;4989941;28;20203;-73
2024/01/14 08:43:06;;;;;;;43.42;21.58;;;;;;;-3.34;78.93;97788.84;5005316;28;20195;-74
2024/01/14 08:45:33;;;;;;;38.63;21.88;;;;;;;-3.22;78.33;97787.84;4989434;28;20203;-73
2024/01/14 08:47:59;;;;;;;39.20;22.13;;;;;;;-2.99;77.92;97788.66;4998498;28;20668;-74
2024/01/14 08:50:26;;;;;;;44.97;23.10;;;;;;;-2.82;77.09;97781.03;4987780;28;20209;-74
2024/01/14 08:52:52;;;;;;;41.13;19.58;;;;;;;-2.77;76.44;97780.66;4988571;28;20213;-74
2024/01/14 08:55:19;;;;;;;37.40;18.88;;;;;;;-2.97;77.33;97778.78;4989095;28;20280;-74
2024/01/14 08:57:47;;;;;;;40.50;21.30;;;;;;;-2.85;77.42;97770.69;4989328;28;20254;-74
2024/01/14 09:00:14;;;;;;;42.25;22.98;;;;;;;-2.67;76.38;97775.44;4986862;28;20213;-74
2024/01/14 09:02:41;;;;;;;45.45;20.98;;;;;;;-2.75;76.28;97768.97;4990116;28;20812;-74
2024/01/14 09:05:08;;;;;;;41.30;21.33;;;;;;;-2.68;76.39;97774.59;4992481;28;20199;-74
2024/01/14 09:07:34;;;;;;;44.40;21.13;;;;;;;-2.60;76.37;97764.22;4993548;28;20207;-75
2024/01/14 09:10:01;;;;;;;37.95;20.27;;;;;;;-2.56;75.87;97765.63;4992240;28;20195;-74
2024/01/14 09:12:27;;;;;;;35.63;18.08;;;;;;;-2.79;75.99;97767.53;4993128;28;20217;-75
2024/01/14 09:14:55;;;;;;;42.38;20.02;;;;;;;-2.99;76.77;97755.09;4994545;28;20302;-75
2024/01/14 09:17:22;;;;;;;38.42;19.92;;;;;;;-2.90;76.35;97754.31;4991468;28;20275;-74
2024/01/14 09:19:48;;;;;;;39.78;20.40;;;;;;;-2.63;76.42;97748.59;4990923;28;20671;-74
2024/01/14 09:22:17;;;;;;;36.17;20.02;;;;;;;-2.56;75.23;97740.94;4992005;28;20203;-74
2024/01/14 09:24:45;;;;;;;41.08;22.17;;;;;;;-2.50;76.03;97735.13;4993291;28;20208;-74
2024/01/14 09:27:12;;;;;;;36.83;19.55;;;;;;;-1.98;74.87;97731.56;4994259;28;20669;-74
2024/01/14 09:29:39;;;;;;;37.05;19.48;;;;;;;-1.56;72.53;97729.66;4991975;28;20199;-74
2024/01/14 09:32:07;;;;;;;35.38;19.90;;;;;;;-1.45;72.00;97728.72;5007174;28;20207;-75
2024/01/14 09:34:33;;;;;;;37.63;20.40;;;;;;;-1.53;71.81;97734.69;5008585;28;20226;-73
2024/01/14 09:37:00;;;;;;;40.22;21.95;;;;;;;-1.55;72.00;97733.13;5008213;28;20207;-74
2024/01/14 09:39:27;;;;;;;38.00;20.88;;;;;;;-1.40;71.39;97724.69;5024863;28;20227;-74
2024/01/14 09:42:02;;;;;;;40.50;23.42;;;;;;;-1.23;71.06;97733.78;4991167;28;20199;-74
2024/01/14 09:44:28;;;;;;;34.00;20.75;;;;;;;-0.88;69.94;97733.28;4992897;28;20206;-74
2024/01/14 09:46:55;;;;;;;33.50;20.20;;;;;;;-1.02;69.34;97729.25;4993646;28;20556;-74
2024/01/14 09:49:23;;;;;;;37.00;21.95;;;;;;;-1.16;70.48;97723.47;4989781;28;20207;-74
2024/01/14 09:51:50;;;;;;;36.28;21.45;;;;;;;-1.04;70.36;97725.03;4991403;28;20195;-74
2024/01/14 09:54:17;;;;;;;35.85;22.17;;;;;;;-0.86;69.34;97735.81;4993756;28;20217;-74
2024/01/14 09:56:46;;;;;;;38.33;21.05;;;;;;;-0.56;69.42;97721.56;5010351;28;20314;-74
2024/01/14 09:59:16;;;;;;;35.25;20.67;;;;;;;-0.52;67.89;97717.63;5004305;28;20223;-76
2024/01/14 10:01:43;;;;;;;29.70;20.25;;;;;;;-0.41;67.89;97709.53;4991496;28;20241;-73
2024/01/14 10:04:09;;;;;;;31.70;20.65;;;;;;;0.06;66.08;97696.25;4994269;28;20657;-74
2024/01/14 10:06:38;;;;;;;35.05;21.90;;;;;;;0.37;64.99;97695.00;4994495;28;20211;-74
2024/01/14 10:09:04;;;;;;;33.58;21.75;;;;;;;0.56;64.46;97692.25;4993361;28;20208;-74
2024/01/14 10:11:31;;;;;;;31.00;21.50;;;;;;;0.91;62.78;97682.66;4991293;28;20661;-74
2024/01/14 10:13:57;;;;;;;36.05;22.00;;;;;;;0.51;63.87;97680.38;4991879;28;20203;-74
2024/01/14 10:16:24;;;;;;;35.85;21.85;;;;;;;0.40;63.28;97683.22;4991337;28;20677;-74
2024/01/14 10:18:55;;;;;;;34.30;20.98;;;;;;;0.24;64.08;97678.56;4993225;28;20220;-73
2024/01/14 10:21:21;;;;;;;29.88;19.85;;;;;;;-0.02;64.59;97678.38;4991332;28;20262;-73
2024/01/14 10:23:49;;;;;;;31.42;19.70;;;;;;;-0.40;66.17;97674.00;5007948;28;20687;-74
2024/01/14 10:26:22;;;;;;;33.53;21.90;;;;;;;0.49;65.44;97679.69;4990990;28;20290;-74
2024/01/14 10:28:48;;;;;;;29.38;20.05;;;;;;;1.19;62.48;97664.78;4992157;28;20203;-74
2024/01/14 10:31:16;;;;;;;33.17;21.00;;;;;;;0.77;62.04;97669.84;4992729;28;20211;-74
2024/01/14 10:33:45;;;;;;;29.73;20.02;;;;;;;0.86;62.17;97663.63;4999983;28;20199;-74
2024/01/14 10:36:13;;;;;;;34.75;21.27;;;;;;;0.17;63.80;97661.50;4991140;28;20260;-75
2024/01/14 10:38:39;;;;;;;34.28;22.38;;;;;;;0.18;64.38;97647.19;4986347;28;20322;-74
2024/01/14 10:41:08;;;;;;;29.88;20.25;;;;;;;0.05;63.80;97647.53;4991354;28;20199;-74
2024/01/14 10:43:36;;;;;;;29.75;20.38;;;;;;;-0.23;64.55;97637.84;4988709;28;20211;-73
2024/01/14 10:46:03;;;;;;;31.48;21.00;;;;;;;-0.16;64.66;97639.78;4983535;28;20258;-74
2024/01/14 10:48:32;;;;;;;32.35;20.52;;;;;;;-0.61;66.31;97639.59;4989852;28;20207;-74
2024/01/14 10:51:03;;;;;;;33.80;20.73;;;;;;;-0.28;65.93;97640.09;5022724;28;20207;-73
2024/01/14 10:53:34;;;;;;;31.38;18.98;;;;;;;-0.66;66.18;97628.59;4988660;28;20218;-74
2024/01/14 10:56:02;;;;;;;34.47;21.35;;;;;;;-0.88;66.97;97616.44;4989701;28;20210;-74
2024/01/14 10:58:35;;;;;;;33.38;19.27;;;;;;;-0.42;66.23;97617.47;4985463;28;20314;-74
2024/01/14 11:01:04;;;;;;;32.63;19.58;;;;;;;-0.14;66.35;97615.69;4990678;28;20211;-74
2024/01/14 11:03:31;;;;;;;30.00;20.05;;;;;;;-0.07;65.44;97612.31;4991158;28;20195;-73
2024/01/14 11:05:59;;;;;;;34.72;20.15;;;;;;;-0.40;65.17;97596.91;4982436;28;20209;-74
2024/01/14 11:08:26;;;;;;;35.60;23.42;;;;;;;-0.21;65.38;97606.63;5000014;28;20211;-73
2024/01/14 11:10:53;;;;;;;31.17;20.30;;;;;;;0.53;64.25;97586.06;4990988;28;20217;-74
2024/01/14 11:13:25;;;;;;;34.17;20.85;;;;;;;1.01;61.86;97584.84;4989593;28;20221;-74
2024/01/14 11:16:01;;;;;;;31.42;20.50;;;;;;;1.23;60.29;97573.72;4991508;28;20313;-77
2024/01/14 11:18:32;;;;;;;30.50;21.35;;;;;;;0.66;60.65;97578.53;4983640;28;20229;-73
2024/01/14 11:21:04;;;;;;;27.60;18.40;;;;;;;1.74;60.09;97561.34;4989893;28;20201;-73
2024/01/14 11:23:32;;;;;;;27.95;18.98;;;;;;;2.50;57.50;97555.97;4990138;28;20317;-73
2024/01/14 11:25:58;;;;;;;29.77;21.23;;;;;;;3.56;55.67;97542.63;4991881;28;20207;-73